Portada
METAR-TAF:

METAR-TAF

Aeroports :

Cabo San Lucas, Mèxic

latitud: 22-56-51N, longitud: 109-56-13W, altitud: 210 m

Observació

L'informe es va fer fa 6 hores i 45 minuts, a les 04:45 UTC
Vent 6 kt del Oest/Nord-Oest
Temperatura 22°C
Humitat 78%
Pressió 1019 hPa
Visibilitat: 11.3 km
Cel clar

METAR: MMSL 070445Z 29006KT 7SM SKC 22/18 A3008

Hora: 04:30 (11:30 UTC)

Pronòstic

L'informe es va fer fa 6 hores i 43 minuts, a les 04:47 UTC
Pronòstic vàlid del 07 a les 06 UTC al 08 a les 06 UTC
Vent 5 kt del Oest/Nord-Oest
Visibilitat: 9.7 km
Cel clar
calitja
A partir de les 07 a les 1800 UTC
Vent 10 kt del Sud/Sud-Oest
Visibilitat: 10 km
Cel clar
A partir de les 08 a les 0300 UTC
Vent 5 kt del Oest/Sud-Oest
Visibilitat: 10 km
Cel clar

TAF: MMSL 070447Z 0706/0806 30005KT 6SM HZ SKC FM071800 20010KT P6SM SKC FM080300 24005KT P6SM SKC

Observacions i pronòstics meteorològics de més de 4000 aeroports (METAR i TAF).

Les estacions disponibles són els punts grocs i vermells al mapa.

Posi el ratolí al punt desitjat per veure el nom de l'estació.

Feu clic per veure les observacions i els pronòstics meteorològics.

Per canviar el mapa: feu clic els botons verds amb una creu de color negre per apropar; al botó verd amb un guió per allunyar la imatge; o en les fletxes verdes per a mapes adjacents.


METAR-TAF: